METAR Torp

ENTO 080220Z AUTO 00000KT 9999 SCT072/// BKN210/// 15/15 Q1022

METAR Gardermoen

ENGM 080220Z 04002KT CAVOK 14/12 Q1023

Webcam Kjeller